Portada
METAR-TAF:

METAR-TAF

Aeroports :

Porto Seguro, Bahia, Brasil

latitud: 16-26S, longitud: 039-04W, altitud: 51 m

Observació

L'informe es va fer fa 30 minuts, a les 01:00 UTC
Vent 6 kt del Sud-Est, variant entre Est i Oest/Sud-Oest
Temperatura 23°C
Humitat 61%
Pressió 1024 hPa
Visibilitat 10 km o més
Núvols disperses a una alçada de 3000 ft
Cel ennuvolat a una alçada de 5000 ft

METAR: SBPS 200100Z 14006KT 080V240 9999 SCT030 BKN050 23/15 Q1024

Hora: 22:30 (01:30 UTC)

Pronòstic

L'informe es va fer fa 3 hores i 30 minuts, a les 22:00 UTC
Pronòstic vàlid del 20 a les 00 UTC al 20 a les 12 UTC
Vent 5 kt del Oest
Visibilitat: 8000 m
Cel ennuvolat a una alçada de 1500 ft
Evolucionant progressivament
l' 20 a les 06 UTC al 20 a les 08 UTC
Vent 5 kt del Oest
Visibilitat 10 km o més
Núvols disperses a una alçada de 1500 ft

TAF: SBPS 192200Z 2000/2012 26005KT 8000 BKN015 TN18/2005Z TX21/2011Z BECMG 2006/2008 26005KT 9999 SCT015 RMK PAZ

Observacions i pronòstics meteorològics de més de 4000 aeroports (METAR i TAF).

Les estacions disponibles són els punts grocs i vermells al mapa.

Posi el ratolí al punt desitjat per veure el nom de l'estació.

Feu clic per veure les observacions i els pronòstics meteorològics.

Per canviar el mapa: feu clic els botons verds amb una creu de color negre per apropar; al botó verd amb un guió per allunyar la imatge; o en les fletxes verdes per a mapes adjacents.


METAR-TAF: